createdAt,value
2022-08-05T00:00:16.215Z,97504.56
2022-08-05T00:02:51.570Z,97551.44
2022-08-05T00:06:02.890Z,97642.13
2022-08-05T00:08:32.887Z,97643.59
2022-08-05T00:10:56.479Z,97631.59
2022-08-05T00:13:38.476Z,97602.34
2022-08-05T00:16:08.989Z,97571.88
2022-08-05T00:18:37.958Z,97563.19
2022-08-05T00:21:05.352Z,97604.63
2022-08-05T00:23:46.197Z,97632.97
2022-08-05T00:26:20.596Z,97626.88
2022-08-05T00:28:47.546Z,97608.81
2022-08-05T00:31:16.539Z,97597.00
2022-08-05T00:34:53.479Z,97585.25
2022-08-05T00:37:11.391Z,97575.28
2022-08-05T00:39:44.555Z,97568.13
2022-08-05T00:42:32.733Z,97559.56
2022-08-05T00:45:00.003Z,97590.16
2022-08-05T00:47:49.197Z,97651.72
2022-08-05T00:50:15.724Z,97645.25
2022-08-05T00:52:45.518Z,97649.13
2022-08-05T00:55:14.062Z,97656.47
2022-08-05T00:57:58.751Z,97666.94
2022-08-05T01:00:26.784Z,97646.31
2022-08-05T01:02:53.804Z,97634.44
2022-08-05T01:05:22.299Z,97558.13
2022-08-05T01:08:42.369Z,97488.59
2022-08-05T01:10:52.462Z,97471.22
2022-08-05T01:13:27.178Z,97469.44
2022-08-05T01:16:02.368Z,97467.16
2022-08-05T01:18:34.275Z,97467.16
2022-08-05T01:21:12.434Z,97485.78
2022-08-05T01:24:14.231Z,97481.34
2022-08-05T01:26:56.082Z,97471.88
2022-08-05T01:29:31.656Z,97473.97
2022-08-05T01:32:05.287Z,97459.22
2022-08-05T01:34:45.436Z,97449.41
2022-08-05T01:37:24.552Z,97448.63
2022-08-05T01:39:58.907Z,97455.88
2022-08-05T01:42:28.141Z,97477.88
2022-08-05T01:44:59.171Z,97481.34
2022-08-05T01:47:38.672Z,97458.72
2022-08-05T01:50:15.684Z,97471.00
2022-08-05T01:52:49.720Z,97496.09
2022-08-05T01:55:20.210Z,97498.84
2022-08-05T01:58:13.082Z,97475.41
2022-08-05T02:00:41.886Z,97502.16
2022-08-05T02:03:28.892Z,97479.31
2022-08-05T02:06:03.764Z,97484.38
2022-08-05T02:08:58.639Z,97439.69
2022-08-05T02:11:33.135Z,97394.53
2022-08-05T02:14:05.509Z,97376.38
2022-08-05T02:16:39.680Z,97381.72
2022-08-05T02:19:14.038Z,97371.88
2022-08-05T02:21:49.241Z,97373.03
2022-08-05T02:24:23.198Z,97371.81
2022-08-05T02:26:54.099Z,97381.56
2022-08-05T02:29:58.388Z,97372.09
2022-08-05T02:32:24.187Z,97351.50
2022-08-05T02:35:00.552Z,97342.84
2022-08-05T02:37:38.773Z,97344.09
2022-08-05T02:40:09.593Z,97345.59
2022-08-05T02:42:37.677Z,97361.91
2022-08-05T02:45:07.867Z,97365.84
2022-08-05T02:48:07.476Z,97394.28
2022-08-05T02:50:28.107Z,97436.16
2022-08-05T02:52:56.107Z,97543.75
2022-08-05T02:55:54.471Z,97558.09
2022-08-05T02:58:13.429Z,97560.84
2022-08-05T03:00:41.129Z,97549.94
2022-08-05T03:03:16.774Z,97549.16
2022-08-05T03:06:56.938Z,97559.00
2022-08-05T03:08:31.919Z,97538.00
2022-08-05T03:11:53.005Z,97540.81
2022-08-05T03:13:51.412Z,97532.66
2022-08-05T03:16:29.509Z,97525.94
2022-08-05T03:19:00.044Z,97530.66
2022-08-05T03:21:28.869Z,97521.16
2022-08-05T03:24:03.456Z,97521.88
2022-08-05T03:26:32.421Z,97534.78
2022-08-05T03:28:59.794Z,97546.41
2022-08-05T03:31:57.316Z,97540.19
2022-08-05T03:34:15.968Z,97524.91
2022-08-05T03:36:43.708Z,97525.53
2022-08-05T03:39:12.953Z,97527.81
2022-08-05T03:41:47.077Z,97521.69
2022-08-05T03:44:19.903Z,97529.78
2022-08-05T03:46:47.037Z,97541.91
2022-08-05T03:49:17.245Z,97566.84
2022-08-05T03:52:48.514Z,97572.56
2022-08-05T03:56:01.873Z,97555.94
2022-08-05T03:57:42.569Z,97558.44
2022-08-05T04:00:16.019Z,97574.00
2022-08-05T04:02:52.349Z,97586.94
2022-08-05T04:05:33.421Z,97601.19
2022-08-05T04:08:03.011Z,97611.25
2022-08-05T04:10:37.578Z,97608.25
2022-08-05T04:13:06.347Z,97607.78
2022-08-05T04:15:36.396Z,97609.84
2022-08-05T04:18:06.825Z,97608.03
2022-08-05T04:20:36.103Z,97611.63
2022-08-05T04:23:03.182Z,97602.16
2022-08-05T04:25:56.654Z,97599.41
2022-08-05T04:28:17.931Z,97600.81
2022-08-05T04:30:45.149Z,97605.75
2022-08-05T04:33:12.385Z,97612.47
2022-08-05T04:36:11.205Z,97607.34
2022-08-05T04:38:39.530Z,97600.63
2022-08-05T04:41:07.343Z,97595.22
2022-08-05T04:43:36.411Z,97590.91
2022-08-05T04:46:04.616Z,97592.59
2022-08-05T04:48:32.437Z,97612.31
2022-08-05T04:51:11.023Z,97625.94
2022-08-05T04:53:39.050Z,97617.28
2022-08-05T04:56:33.068Z,97618.63
2022-08-05T04:58:54.115Z,97614.47
2022-08-05T05:01:33.810Z,97605.88
2022-08-05T05:04:07.944Z,97596.13
2022-08-05T05:06:44.950Z,97579.44
2022-08-05T05:09:19.002Z,97578.72
2022-08-05T05:11:53.912Z,97585.47
2022-08-05T05:14:27.798Z,97596.19
2022-08-05T05:16:59.282Z,97607.28
2022-08-05T05:19:27.417Z,97608.69
2022-08-05T05:22:23.591Z,97615.59
2022-08-05T05:24:58.900Z,97606.00
2022-08-05T05:27:44.415Z,97607.06
2022-08-05T05:30:15.288Z,97618.78
2022-08-05T05:32:56.919Z,97622.69
2022-08-05T05:35:29.133Z,97609.47
2022-08-05T05:38:05.493Z,97612.22
2022-08-05T05:40:33.355Z,97603.88
2022-08-05T05:43:02.306Z,97586.44
2022-08-05T05:45:29.373Z,97577.69
2022-08-05T05:48:05.559Z,97603.44
2022-08-05T05:50:42.569Z,97620.19
2022-08-05T05:53:21.637Z,97607.88
2022-08-05T05:55:52.511Z,97606.09
2022-08-05T05:58:31.639Z,97616.13
2022-08-05T06:01:02.603Z,97617.28
2022-08-05T06:04:01.198Z,97600.72
2022-08-05T06:06:28.138Z,97587.25
2022-08-05T06:08:59.724Z,97565.50
2022-08-05T06:11:28.846Z,97561.75
2022-08-05T06:13:56.225Z,97553.09
2022-08-05T06:16:28.321Z,97558.75
2022-08-05T06:19:00.039Z,97549.34
2022-08-05T06:21:35.909Z,97538.78
2022-08-05T06:24:11.416Z,97530.59
2022-08-05T06:26:39.944Z,97559.91
2022-08-05T06:29:26.454Z,97577.00
2022-08-05T06:32:06.326Z,97607.66
2022-08-05T06:34:53.634Z,97613.34
2022-08-05T06:37:52.291Z,97600.22
2022-08-05T06:40:13.006Z,97599.84
2022-08-05T06:42:40.707Z,97572.19
2022-08-05T06:45:09.288Z,97556.72
2022-08-05T06:48:36.810Z,97549.41
2022-08-05T06:50:23.718Z,97527.19
2022-08-05T06:52:58.879Z,97513.44
2022-08-05T06:55:36.412Z,97523.84
2022-08-05T06:58:20.274Z,97531.97
2022-08-05T07:00:51.109Z,97546.31
2022-08-05T07:03:18.356Z,97553.88
2022-08-05T07:05:46.446Z,97562.75
2022-08-05T07:08:13.655Z,97572.69
2022-08-05T07:10:52.746Z,97574.19
2022-08-05T07:13:57.967Z,97571.25
2022-08-05T07:18:02.278Z,97591.97
2022-08-05T07:22:28.346Z,97616.03
2022-08-05T07:24:58.136Z,97635.19
2022-08-05T07:27:27.606Z,97646.28
2022-08-05T07:30:27.321Z,62402.38
2022-08-05T07:32:57.549Z,62402.38
2022-08-05T07:36:05.158Z,62402.38
2022-08-05T07:38:12.394Z,97646.28
2022-08-05T07:40:55.700Z,97667.25
2022-08-05T07:43:29.979Z,97669.59
2022-08-05T07:45:58.519Z,97681.34
2022-08-05T07:49:01.021Z,97686.09
2022-08-05T07:51:23.541Z,97679.03
2022-08-05T07:54:02.976Z,97682.88
2022-08-05T07:57:02.875Z,97681.84
2022-08-05T07:59:23.212Z,97680.00
2022-08-05T08:01:58.155Z,97683.06
2022-08-05T08:04:37.602Z,97687.69
2022-08-05T08:07:06.997Z,97683.66
2022-08-05T08:09:34.351Z,97689.00
2022-08-05T08:12:09.063Z,97671.81
2022-08-05T08:14:46.765Z,97676.03
2022-08-05T08:17:21.373Z,97682.75
2022-08-05T08:20:43.574Z,97681.66
2022-08-05T08:22:36.032Z,97675.25
2022-08-05T08:25:03.941Z,97691.03
2022-08-05T08:27:47.641Z,97705.13
2022-08-05T08:30:34.160Z,97701.94
2022-08-05T08:33:08.374Z,97685.28
2022-08-05T08:35:40.893Z,97690.31
2022-08-05T08:38:16.427Z,97694.84
2022-08-05T08:40:51.478Z,97704.44
2022-08-05T08:45:16.187Z,97708.47
2022-08-05T08:46:09.810Z,97699.88
2022-08-05T08:49:02.916Z,97699.47
2022-08-05T08:52:06.181Z,97698.06
2022-08-05T08:54:21.288Z,97704.06
2022-08-05T08:56:56.507Z,97700.69
2022-08-05T08:59:27.650Z,97692.59
2022-08-05T09:02:08.559Z,97682.38
2022-08-05T09:04:58.202Z,97689.78
2022-08-05T09:07:28.377Z,97690.97
2022-08-05T09:09:56.695Z,97692.91
2022-08-05T09:12:27.352Z,97685.69
2022-08-05T09:14:58.823Z,97688.28
2022-08-05T09:17:42.911Z,97688.47
2022-08-05T09:20:36.655Z,97672.28
2022-08-05T09:23:09.059Z,97683.38
2022-08-05T09:26:01.719Z,97687.41
2022-08-05T09:28:32.350Z,97671.78
2022-08-05T09:31:23.461Z,97677.59
2022-08-05T09:33:58.640Z,97680.19
2022-08-05T09:36:54.699Z,97668.97
2022-08-05T09:39:39.577Z,97669.13
2022-08-05T09:42:13.601Z,97676.00
2022-08-05T09:44:56.302Z,97683.78
2022-08-05T09:47:34.919Z,97694.41
2022-08-05T09:50:37.745Z,97692.31
2022-08-05T09:53:07.256Z,97685.34
2022-08-05T09:55:57.652Z,97688.25
2022-08-05T09:58:24.860Z,97680.78
2022-08-05T10:00:57.561Z,97681.66
2022-08-05T10:03:26.089Z,97675.97
2022-08-05T10:06:15.519Z,97676.44
2022-08-05T10:08:43.429Z,97680.03
2022-08-05T10:11:21.662Z,97672.56
2022-08-05T10:13:54.599Z,97659.25
2022-08-05T10:16:31.015Z,97670.66
2022-08-05T10:18:59.859Z,97679.69
2022-08-05T10:21:35.253Z,97682.53
2022-08-05T10:24:10.684Z,97679.53
2022-08-05T10:26:49.104Z,97677.72
2022-08-05T10:30:05.693Z,97680.09
2022-08-05T10:32:52.721Z,97660.19
2022-08-05T10:35:00.791Z,97671.31
2022-08-05T10:37:44.315Z,97680.91
2022-08-05T10:40:20.473Z,97687.00
2022-08-05T10:42:59.709Z,97701.00
2022-08-05T10:45:40.038Z,97716.28
2022-08-05T10:48:52.612Z,97717.94
2022-08-05T10:51:29.156Z,97719.56
2022-08-05T10:54:01.085Z,97714.59
2022-08-05T10:56:45.079Z,97711.03
2022-08-05T11:00:04.184Z,97713.00
2022-08-05T11:02:34.503Z,62402.38
2022-08-05T11:04:58.849Z,62402.38
2022-08-05T11:07:33.140Z,62402.38
2022-08-05T11:10:27.640Z,62402.38
2022-08-05T11:12:57.425Z,62402.38
2022-08-05T11:15:44.035Z,73470.34
2022-08-05T11:18:32.316Z,97735.75
2022-08-05T11:21:00.271Z,97745.75
2022-08-05T11:24:04.103Z,97751.28
2022-08-05T11:26:31.995Z,97756.47
2022-08-05T11:29:11.979Z,97770.16
2022-08-05T11:31:58.617Z,97778.31
2022-08-05T11:34:40.153Z,97777.31
2022-08-05T11:38:29.053Z,97767.69
2022-08-05T11:41:12.691Z,97769.19
2022-08-05T11:44:04.551Z,97757.88
2022-08-05T11:46:36.391Z,97766.28
2022-08-05T11:49:06.177Z,97771.66
2022-08-05T11:51:44.539Z,97768.50
2022-08-05T11:54:32.861Z,97767.44
2022-08-05T11:57:08.047Z,97795.59
2022-08-05T11:59:51.152Z,97787.53
2022-08-05T12:02:29.920Z,97790.38
2022-08-05T12:04:59.890Z,97789.00
2022-08-05T12:08:08.073Z,97789.47
2022-08-05T12:10:18.351Z,97793.53
2022-08-05T12:12:58.131Z,97800.63
2022-08-05T12:15:38.074Z,97805.91
2022-08-05T12:18:10.754Z,97800.97
2022-08-05T12:20:38.889Z,97806.03
2022-08-05T12:23:10.560Z,97815.53
2022-08-05T12:25:49.832Z,97813.53
2022-08-05T12:28:34.136Z,97807.72
2022-08-05T12:31:02.801Z,97818.41
2022-08-05T12:33:36.621Z,97821.97
2022-08-05T12:36:08.496Z,97819.75
2022-08-05T12:38:37.766Z,97824.78
2022-08-05T12:41:13.187Z,97826.56
2022-08-05T12:43:55.363Z,97828.22
2022-08-05T12:46:28.105Z,97822.84
2022-08-05T12:48:58.062Z,97818.22
2022-08-05T12:52:11.111Z,97814.91
2022-08-05T12:54:26.487Z,97818.16
2022-08-05T12:56:56.044Z,97825.03
2022-08-05T12:59:46.706Z,97824.69
2022-08-05T13:02:15.646Z,97828.69
2022-08-05T13:04:52.568Z,97817.19
2022-08-05T13:07:47.824Z,97821.44
2022-08-05T13:10:11.929Z,97828.34
2022-08-05T13:12:42.490Z,97841.19
2022-08-05T13:15:24.432Z,97838.53
2022-08-05T13:18:04.157Z,97846.75
2022-08-05T13:20:34.649Z,97851.09
2022-08-05T13:23:01.818Z,97849.25
2022-08-05T13:25:52.745Z,97851.38
2022-08-05T13:28:22.446Z,97852.91
2022-08-05T13:30:51.220Z,97858.50
2022-08-05T13:34:21.710Z,97873.50
2022-08-05T13:36:09.573Z,97879.84
2022-08-05T13:38:41.967Z,97883.00
2022-08-05T13:41:10.125Z,97893.31
2022-08-05T13:43:44.163Z,97900.97
2022-08-05T13:46:30.804Z,97900.78
2022-08-05T13:49:09.808Z,97903.47
2022-08-05T13:51:40.894Z,97913.44
2022-08-05T13:54:12.742Z,97905.59
2022-08-05T13:56:45.382Z,97908.41
2022-08-05T13:59:20.044Z,97909.53
2022-08-05T14:01:57.528Z,97913.38
2022-08-05T14:04:49.500Z,97917.38
2022-08-05T14:07:55.746Z,97912.44
2022-08-05T14:10:05.468Z,97904.34
2022-08-05T14:12:35.562Z,97904.63
2022-08-05T14:16:03.874Z,97904.19
2022-08-05T14:17:49.777Z,97897.47
2022-08-05T14:20:18.607Z,97900.97
2022-08-05T14:22:50.145Z,97903.06
2022-08-05T14:25:21.739Z,97906.50
2022-08-05T14:27:50.979Z,97906.88
2022-08-05T14:30:20.482Z,97928.22
2022-08-05T14:32:47.920Z,97932.56
2022-08-05T14:35:16.295Z,97939.47
2022-08-05T14:37:53.564Z,97959.91
2022-08-05T14:40:24.286Z,97949.03
2022-08-05T14:42:51.789Z,97959.94
2022-08-05T14:45:18.821Z,97949.31
2022-08-05T14:48:04.146Z,62402.38
2022-08-05T14:50:32.710Z,97943.97
2022-08-05T14:53:01.311Z,97931.41
2022-08-05T14:55:39.557Z,97940.34
2022-08-05T14:58:10.941Z,97927.41
2022-08-05T15:00:39.064Z,97934.19
2022-08-05T15:03:25.962Z,97938.28
2022-08-05T15:06:08.078Z,97933.97
2022-08-05T15:08:58.008Z,97939.28
2022-08-05T15:11:51.292Z,97949.28
2022-08-05T15:14:20.186Z,97942.38
2022-08-05T15:16:59.983Z,97938.06
2022-08-05T15:19:27.010Z,97949.75
2022-08-05T15:21:59.943Z,97959.66
2022-08-05T15:24:29.123Z,97950.72
2022-08-05T15:26:56.991Z,97957.22
2022-08-05T15:29:29.799Z,97974.06
2022-08-05T15:31:57.451Z,97968.94
2022-08-05T15:34:32.255Z,97974.63
2022-08-05T15:37:04.845Z,97976.63
2022-08-05T15:41:03.884Z,97974.34
2022-08-05T15:42:28.939Z,97978.97
2022-08-05T15:45:11.429Z,97982.19
2022-08-05T15:47:38.403Z,97994.28
2022-08-05T15:50:07.247Z,97988.09
2022-08-05T15:52:53.693Z,97994.66
2022-08-05T15:55:24.539Z,97994.38
2022-08-05T15:57:52.312Z,97991.28
2022-08-05T16:00:32.775Z,97990.91
2022-08-05T16:03:06.479Z,97996.22
2022-08-05T16:05:33.468Z,97991.50
2022-08-05T16:08:00.398Z,98012.13
2022-08-05T16:10:29.592Z,98003.94
2022-08-05T16:12:57.954Z,98008.97
2022-08-05T16:15:24.901Z,98010.03
2022-08-05T16:17:59.793Z,97999.25
2022-08-05T16:20:27.877Z,98013.19
2022-08-05T16:22:55.265Z,98010.59
2022-08-05T16:25:33.964Z,98012.50
2022-08-05T16:28:06.133Z,98018.28
2022-08-05T16:30:34.254Z,98020.41
2022-08-05T16:33:03.329Z,98021.81
2022-08-05T16:35:32.286Z,98030.31
2022-08-05T16:38:15.677Z,98036.91
2022-08-05T16:40:55.695Z,98036.31
2022-08-05T16:43:31.446Z,98026.72
2022-08-05T16:46:04.850Z,98026.91
2022-08-05T16:48:37.870Z,98016.41
2022-08-05T16:51:09.194Z,98021.09
2022-08-05T16:54:03.224Z,98035.09
2022-08-05T16:56:26.500Z,98034.13
2022-08-05T16:58:55.870Z,98028.59
2022-08-05T17:01:24.322Z,98026.84
2022-08-05T17:03:52.112Z,98026.59
2022-08-05T17:06:19.462Z,98038.53
2022-08-05T17:08:52.928Z,98034.25
2022-08-05T17:11:23.906Z,98036.31
2022-08-05T17:14:00.587Z,98029.38
2022-08-05T17:16:36.733Z,98035.84
2022-08-05T17:19:07.878Z,98034.53
2022-08-05T17:21:37.647Z,98036.53
2022-08-05T17:24:19.410Z,98037.63
2022-08-05T17:26:56.335Z,98045.72
2022-08-05T17:29:33.136Z,98051.91
2022-08-05T17:32:02.647Z,62402.38
2022-08-05T17:34:32.054Z,62402.38
2022-08-05T17:36:59.632Z,62402.38
2022-08-05T17:39:29.784Z,62402.38
2022-08-05T17:42:18.348Z,62402.38
2022-08-05T17:44:50.192Z,62402.38
2022-08-05T17:47:22.275Z,98065.22
2022-08-05T17:50:00.540Z,62402.38
2022-08-05T17:52:32.263Z,62402.38
2022-08-05T17:54:59.662Z,98072.38
2022-08-05T17:57:27.687Z,98068.16
2022-08-05T18:00:05.360Z,98074.41
2022-08-05T18:02:34.650Z,98067.44
2022-08-05T18:05:06.191Z,98077.72
2022-08-05T18:07:42.146Z,98073.72
2022-08-05T18:10:11.408Z,98072.38
2022-08-05T18:12:39.170Z,98081.63
2022-08-05T18:15:08.708Z,98094.09
2022-08-05T18:17:58.889Z,98090.91
2022-08-05T18:20:29.624Z,98093.00
2022-08-05T18:23:08.749Z,98102.38
2022-08-05T18:25:38.900Z,98096.88
2022-08-05T18:28:06.885Z,98098.38
2022-08-05T18:30:34.338Z,98109.59
2022-08-05T18:33:02.793Z,98115.44
2022-08-05T18:36:01.126Z,98112.00
2022-08-05T18:38:19.097Z,98123.22
2022-08-05T18:41:58.535Z,62402.38
2022-08-05T18:43:42.730Z,62402.38
2022-08-05T18:46:15.604Z,98123.22
2022-08-05T18:48:51.797Z,98137.78
2022-08-05T18:52:04.883Z,98140.13
2022-08-05T18:54:25.211Z,98150.91
2022-08-05T18:56:52.280Z,98152.13
2022-08-05T18:59:50.647Z,98153.53
2022-08-05T19:02:11.241Z,98161.56
2022-08-05T19:05:03.207Z,98162.13
2022-08-05T19:07:45.852Z,98166.09
2022-08-05T19:10:13.875Z,98173.03
2022-08-05T19:12:40.825Z,98177.72
2022-08-05T19:15:25.212Z,98185.31
2022-08-05T19:17:59.772Z,98191.22
2022-08-05T19:20:41.466Z,98191.06
2022-08-05T19:24:04.543Z,98195.69
2022-08-05T19:26:02.174Z,98202.56
2022-08-05T19:28:29.977Z,98204.38
2022-08-05T19:30:58.001Z,98212.88
2022-08-05T19:33:35.330Z,98218.91
2022-08-05T19:36:06.178Z,98220.38
2022-08-05T19:38:35.655Z,98229.50
2022-08-05T19:41:07.205Z,98236.59
2022-08-05T19:44:06.628Z,98238.56
2022-08-05T19:46:30.160Z,98245.81
2022-08-05T19:49:01.256Z,98255.00
2022-08-05T19:52:13.316Z,98269.59
2022-08-05T19:54:26.649Z,98269.19
2022-08-05T19:56:57.910Z,98267.28
2022-08-05T20:00:00.846Z,98276.41
2022-08-05T20:02:13.280Z,98272.22
2022-08-05T20:04:42.859Z,98274.56
2022-08-05T20:07:13.477Z,98277.47
2022-08-05T20:09:54.395Z,62402.38
2022-08-05T20:12:22.413Z,62402.38
2022-08-05T20:14:52.037Z,62402.38
2022-08-05T20:17:19.634Z,98290.72
2022-08-05T20:19:50.867Z,98290.44
2022-08-05T20:22:26.916Z,98292.22
2022-08-05T20:24:55.263Z,98288.06
2022-08-05T20:27:26.869Z,98290.66
2022-08-05T20:29:58.292Z,62402.38
2022-08-05T20:32:27.092Z,98296.47
2022-08-05T20:34:54.599Z,98306.78
2022-08-05T20:38:04.846Z,98309.34
2022-08-05T20:40:11.539Z,98319.53
2022-08-05T20:42:38.506Z,98316.31
2022-08-05T20:45:07.338Z,98329.00
2022-08-05T20:47:35.348Z,98323.53
2022-08-05T20:50:08.877Z,98323.66
2022-08-05T20:52:39.282Z,98327.06
2022-08-05T20:56:08.048Z,98332.75
2022-08-05T20:57:57.259Z,98339.00
2022-08-05T21:00:44.434Z,98343.19
2022-08-05T21:03:11.932Z,98341.06
2022-08-05T21:05:53.925Z,98345.56
2022-08-05T21:08:26.610Z,98348.31
2022-08-05T21:11:01.398Z,98355.72
2022-08-05T21:13:48.497Z,98348.78
2022-08-05T21:16:29.833Z,98354.09
2022-08-05T21:18:59.879Z,98354.06
2022-08-05T21:21:39.670Z,98354.84
2022-08-05T21:24:12.682Z,98348.72
2022-08-05T21:26:41.717Z,98358.22
2022-08-05T21:29:10.155Z,98360.44
2022-08-05T21:31:41.659Z,98361.72
2022-08-05T21:34:10.498Z,98368.91
2022-08-05T21:36:38.015Z,98369.25
2022-08-05T21:39:05.097Z,98368.28
2022-08-05T21:41:35.425Z,98360.66
2022-08-05T21:44:05.141Z,98363.19
2022-08-05T21:46:34.589Z,98363.81
2022-08-05T21:49:02.106Z,98368.41
2022-08-05T21:52:21.434Z,98362.94
2022-08-05T21:54:18.838Z,98370.81
2022-08-05T21:57:29.249Z,98372.88
2022-08-05T22:00:04.016Z,98371.84
2022-08-05T22:02:33.166Z,98379.59
2022-08-05T22:05:00.523Z,98385.78
2022-08-05T22:07:40.081Z,98382.56
2022-08-05T22:10:16.935Z,98379.78
2022-08-05T22:12:44.915Z,98377.84
2022-08-05T22:16:01.704Z,98381.94
2022-08-05T22:18:06.083Z,98375.78
2022-08-05T22:20:35.722Z,98388.00
2022-08-05T22:23:24.991Z,98389.88
2022-08-05T22:26:30.380Z,98391.59
2022-08-05T22:28:57.252Z,98405.38
2022-08-05T22:31:30.306Z,98407.78
2022-08-05T22:34:01.453Z,98408.72
2022-08-05T22:36:29.318Z,98408.31
2022-08-05T22:38:56.765Z,98406.09
2022-08-05T22:42:04.994Z,98403.00
2022-08-05T22:44:11.959Z,98408.88
2022-08-05T22:46:41.091Z,98398.34
2022-08-05T22:49:23.551Z,98398.34
2022-08-05T22:52:05.861Z,98405.81
2022-08-05T22:54:35.023Z,98405.75
2022-08-05T22:57:02.873Z,98410.41
2022-08-05T22:59:43.832Z,98411.13
2022-08-05T23:02:28.738Z,98418.78
2022-08-05T23:04:55.937Z,98416.84
2022-08-05T23:07:22.836Z,98432.59
2022-08-05T23:09:57.702Z,98431.09
2022-08-05T23:12:32.816Z,98433.94
2022-08-05T23:15:00.588Z,98434.94
2022-08-05T23:17:34.917Z,98437.56
2022-08-05T23:20:16.820Z,98433.50
2022-08-05T23:22:47.169Z,98440.88
2022-08-05T23:25:17.455Z,98445.13
2022-08-05T23:28:03.039Z,98454.97
2022-08-05T23:30:31.206Z,62402.38
2022-08-05T23:32:59.723Z,62402.38
2022-08-05T23:35:28.682Z,62402.38
2022-08-05T23:38:01.620Z,62402.38
2022-08-05T23:40:28.519Z,62402.38
2022-08-05T23:42:55.417Z,98458.88
2022-08-05T23:45:23.786Z,98456.22
2022-08-05T23:47:53.828Z,98461.19
2022-08-05T23:50:31.394Z,98461.81
2022-08-05T23:52:58.220Z,98468.38
2022-08-05T23:55:30.941Z,98462.19
2022-08-05T23:57:58.221Z,98461.22
